Time;durP1;ratioP1;P1;durP2;ratioP2;P2;SDS_P1;SDS_P2;PMS_P1;PMS_P2;Temp;Humidity;BMP_temperature;BMP_pressure;BME280_temperature;BME280_humidity;BME280_pressure;Samples;Min_cycle;Max_cycle;Signal;HPM_P1;HPM_P2
2023/02/11 00:01:21;;;;;;;47.08;20.90;;;;;;;-0.13;48.01;101823.03;5038464;28;20195;-61
2023/02/11 00:03:46;;;;;;;43.72;22.05;;;;;;;-0.24;48.48;101819.91;5039887;28;20051;-61
2023/02/11 00:06:12;;;;;;;44.00;20.42;;;;;;;-0.25;48.56;101826.00;5038394;28;20073;-64
2023/02/11 00:08:38;;;;;;;48.53;20.85;;;;;;;-0.24;48.66;101825.09;5039201;28;20037;-63
2023/02/11 00:11:04;;;;;;;40.83;21.67;;;;;;;-0.21;48.29;101829.38;5040270;28;20041;-62
2023/02/11 00:13:29;;;;;;;44.88;20.55;;;;;;;-0.39;48.71;101822.91;5037886;28;20201;-62
2023/02/11 00:15:56;;;;;;;37.55;18.55;;;;;;;-0.32;48.65;101819.25;5038462;28;20040;-63
2023/02/11 00:18:21;;;;;;;42.30;19.42;;;;;;;-0.29;48.54;101826.97;5036223;28;20041;-63
2023/02/11 00:20:47;;;;;;;40.80;20.23;;;;;;;-0.33;48.59;101825.34;5039934;28;20247;-61
2023/02/11 00:23:13;;;;;;;42.90;19.05;;;;;;;-0.33;48.52;101821.00;5036799;28;20247;-62
2023/02/11 00:25:44;;;;;;;33.50;16.80;;;;;;;-0.31;48.60;101823.56;5038627;28;20068;-63
2023/02/11 00:28:10;;;;;;;36.55;17.95;;;;;;;-0.43;48.16;101821.28;5037717;28;20060;-63
2023/02/11 00:30:35;;;;;;;34.42;16.17;;;;;;;-0.47;48.74;101832.69;5038445;28;20025;-61
2023/02/11 00:33:01;;;;;;;41.28;17.98;;;;;;;-0.42;48.38;101831.66;5038679;28;20033;-62
2023/02/11 00:35:27;;;;;;;35.97;18.30;;;;;;;-0.34;48.32;101826.25;5037788;28;20037;-62
2023/02/11 00:37:54;;;;;;;32.35;16.23;;;;;;;-0.54;48.78;101832.00;5038682;28;20037;-62
2023/02/11 00:40:20;;;;;;;25.55;14.52;;;;;;;-0.30;48.01;101829.63;5037964;28;20041;-61
2023/02/11 00:42:46;;;;;;;25.60;13.27;;;;;;;-0.24;47.71;101827.69;5038922;28;20327;-62
2023/02/11 00:45:11;;;;;;;25.35;13.07;;;;;;;-0.29;47.25;101821.78;5037951;28;20036;-62
2023/02/11 00:47:37;;;;;;;23.75;11.70;;;;;;;-0.43;47.04;101823.91;5037686;28;20065;-61
2023/02/11 00:50:04;;;;;;;19.52;12.63;;;;;;;-0.49;47.16;101824.06;5037935;28;20037;-62
2023/02/11 00:52:33;;;;;;;26.50;13.00;;;;;;;-0.47;47.14;101824.88;5036755;28;20105;-63
2023/02/11 00:54:58;;;;;;;21.50;11.82;;;;;;;-0.55;47.06;101813.81;5037718;28;20125;-63
2023/02/11 00:57:24;;;;;;;25.08;13.50;;;;;;;-0.56;47.21;101819.91;5037493;28;20223;-61
2023/02/11 00:59:49;;;;;;;21.98;12.70;;;;;;;-0.54;47.02;101818.13;5038046;28;20041;-61
2023/02/11 01:02:15;;;;;;;26.88;12.32;;;;;;;-0.54;46.80;101818.97;5038119;28;20041;-63
2023/02/11 01:04:41;;;;;;;22.25;12.13;;;;;;;-0.52;46.95;101822.41;5037412;28;20269;-62
2023/02/11 01:07:06;;;;;;;23.63;12.20;;;;;;;-0.51;46.54;101818.03;5036852;28;20045;-61
2023/02/11 01:09:32;;;;;;;23.30;11.60;;;;;;;-0.59;47.04;101812.19;5036359;28;20213;-62
2023/02/11 01:11:57;;;;;;;19.63;11.25;;;;;;;-0.69;46.95;101812.44;5035521;28;20335;-62
2023/02/11 01:14:23;;;;;;;27.45;12.23;;;;;;;-0.66;47.29;101801.09;5037825;28;20039;-63
2023/02/11 01:16:48;;;;;;;23.42;11.57;;;;;;;-0.74;47.09;101808.25;5036116;28;20389;-61
2023/02/11 01:19:14;;;;;;;21.48;11.65;;;;;;;-0.78;47.52;101806.63;5038914;28;20043;-61
2023/02/11 01:21:39;;;;;;;20.58;11.57;;;;;;;-0.71;47.38;101810.75;5037710;28;20064;-63
2023/02/11 01:24:05;;;;;;;29.35;11.90;;;;;;;-0.70;47.47;101800.31;5037904;28;20037;-62
2023/02/11 01:26:30;;;;;;;36.20;14.02;;;;;;;-0.72;47.36;101796.91;5036989;28;20084;-62
2023/02/11 01:28:56;;;;;;;23.08;12.48;;;;;;;-0.81;47.46;101799.75;5038191;28;20062;-61
2023/02/11 01:31:21;;;;;;;28.65;12.50;;;;;;;-0.84;47.59;101801.56;5036536;28;20029;-62
2023/02/11 01:33:47;;;;;;;23.77;12.20;;;;;;;-1.03;47.76;101783.84;5037281;28;20352;-62
2023/02/11 01:36:13;;;;;;;25.45;12.48;;;;;;;-1.33;48.40;101788.00;5035687;28;20021;-61
2023/02/11 01:38:39;;;;;;;23.50;11.93;;;;;;;-1.47;48.91;101782.28;5035610;28;20088;-61
2023/02/11 01:41:09;;;;;;;27.15;12.85;;;;;;;-1.65;49.12;101786.16;5037230;28;20021;-62
2023/02/11 01:43:38;;;;;;;24.42;11.90;;;;;;;-1.83;49.48;101778.78;5036593;28;20104;-63
2023/02/11 01:46:30;;;;;;;24.80;12.30;;;;;;;-1.94;50.11;101781.63;5037053;28;20052;-61
2023/02/11 01:49:05;;;;;;;26.30;12.75;;;;;;;-2.04;50.70;101774.06;5034766;28;20354;-61
2023/02/11 01:51:38;;;;;;;26.08;12.27;;;;;;;-2.05;50.38;101765.44;5036213;28;20219;-62
2023/02/11 01:59:53;;;;;;;24.80;11.82;;;;;;;-1.72;49.16;101776.81;5037583;28;20258;-62
2023/02/11 02:02:24;;;;;;;23.38;10.85;;;;;;;-1.40;48.69;101788.19;5036936;28;20053;-62
2023/02/11 02:05:01;;;;;;;26.52;12.75;;;;;;;-1.20;48.13;101785.13;5037537;28;20038;-61
2023/02/11 02:07:42;;;;;;;26.65;11.15;;;;;;;-1.12;47.82;101778.84;5037477;28;20049;-61
2023/02/11 02:10:12;;;;;;;32.58;13.40;;;;;;;-0.97;47.23;101773.28;5037363;28;20323;-62
2023/02/11 02:12:38;;;;;;;37.17;15.45;;;;;;;-0.89;46.98;101769.63;5038112;28;20033;-63
2023/02/11 02:15:33;;;;;;;29.70;14.15;;;;;;;-0.78;47.14;101772.81;5038355;28;20211;-61
2023/02/11 02:18:37;;;;;;;25.23;12.27;;;;;;;-0.92;47.47;101773.16;5037230;28;20339;-63
2023/02/11 02:21:18;;;;;;;24.40;11.90;;;;;;;-1.09;47.29;101778.75;5037453;28;20359;-63
2023/02/11 02:24:07;;;;;;;28.48;12.82;;;;;;;-1.55;49.62;101791.16;5037797;28;20045;-61
2023/02/11 02:26:45;;;;;;;22.60;11.38;;;;;;;-1.55;49.41;101783.38;5037587;28;20528;-62
2023/02/11 02:29:17;;;;;;;25.23;10.70;;;;;;;-1.84;49.54;101781.44;5038513;28;20126;-63
2023/02/11 02:32:11;;;;;;;25.52;11.63;;;;;;;-1.63;49.54;101781.78;5038068;28;20049;-63
2023/02/11 02:35:03;;;;;;;21.92;11.13;;;;;;;-1.76;49.63;101777.78;5037616;28;20049;-62
2023/02/11 02:37:36;;;;;;;25.63;12.23;;;;;;;-1.72;49.67;101787.19;5037076;28;20030;-62
2023/02/11 02:40:13;;;;;;;21.90;11.67;;;;;;;-1.63;48.93;101788.72;5037398;28;20083;-62
2023/02/11 02:42:40;;;;;;;25.67;11.95;;;;;;;-1.86;49.69;101798.78;5037496;28;20382;-62
2023/02/11 02:45:08;;;;;;;23.60;12.68;;;;;;;-1.77;50.51;101793.38;5037503;28;20308;-61
2023/02/11 02:47:33;;;;;;;26.85;12.55;;;;;;;-1.65;50.15;101793.13;5037576;28;20345;-61
2023/02/11 02:49:59;;;;;;;28.35;13.00;;;;;;;-1.54;49.53;101792.88;5033973;28;20041;-63
2023/02/11 02:52:49;;;;;;;26.92;12.57;;;;;;;-1.61;49.34;101786.97;5033543;28;20259;-61
2023/02/11 02:56:01;;;;;;;27.50;12.48;;;;;;;-1.61;49.55;101795.59;5034344;28;20040;-61
2023/02/11 02:58:58;;;;;;;25.58;11.38;;;;;;;-1.51;49.38;101796.25;5030643;28;20102;-62
2023/02/11 03:01:38;;;;;;;25.23;11.93;;;;;;;-1.69;49.56;101788.88;5033696;28;20152;-62
2023/02/11 03:04:34;;;;;;;22.50;11.30;;;;;;;-1.50;49.72;101784.09;5032832;28;20168;-61
2023/02/11 03:07:32;;;;;;;22.75;11.02;;;;;;;-1.47;49.10;101786.63;5032558;28;20057;-60
2023/02/11 03:10:02;;;;;;;22.38;11.10;;;;;;;-1.52;48.78;101781.56;5032386;28;20123;-62
2023/02/11 03:12:32;;;;;;;25.05;11.77;;;;;;;-1.41;48.92;101795.13;5033336;28;20112;-63
2023/02/11 03:14:59;;;;;;;21.40;10.55;;;;;;;-1.33;48.62;101785.41;5032313;28;20045;-61
2023/02/11 03:17:27;;;;;;;24.23;10.65;;;;;;;-1.21;49.01;101786.00;5032852;28;20037;-61
2023/02/11 03:19:54;;;;;;;24.27;12.48;;;;;;;-1.15;48.47;101780.66;5031829;28;20053;-62
2023/02/11 03:22:26;;;;;;;21.33;10.98;;;;;;;-1.02;48.08;101788.16;5031459;28;20033;-63
2023/02/11 03:24:54;;;;;;;26.60;11.20;;;;;;;-0.98;47.92;101788.94;5032921;28;20040;-61
2023/02/11 03:27:24;;;;;;;23.25;11.07;;;;;;;-1.02;47.76;101782.94;5032108;28;20319;-61
2023/02/11 03:30:05;;;;;;;23.38;10.52;;;;;;;-1.07;47.92;101787.38;5031632;28;20091;-61
2023/02/11 03:32:42;;;;;;;23.00;11.20;;;;;;;-1.14;47.92;101785.81;5031358;28;20029;-63
2023/02/11 03:35:11;;;;;;;22.77;10.35;;;;;;;-1.05;48.14;101784.75;5032643;28;20041;-61
2023/02/11 03:37:42;;;;;;;18.98;10.32;;;;;;;-0.99;47.44;101795.03;5031510;28;20394;-61
2023/02/11 03:40:15;;;;;;;24.58;11.63;;;;;;;-0.94;47.62;101798.34;5030826;28;20040;-62
2023/02/11 03:42:50;;;;;;;20.80;11.60;;;;;;;-1.04;47.98;101795.13;5032150;28;20037;-63
2023/02/11 03:45:20;;;;;;;26.40;12.23;;;;;;;-1.05;47.81;101790.78;5031473;28;20037;-61
2023/02/11 03:47:50;;;;;;;28.27;12.98;;;;;;;-0.99;47.90;101789.81;5031188;28;20087;-61
2023/02/11 03:50:19;;;;;;;31.70;13.32;;;;;;;-0.93;48.03;101792.25;5032397;28;20033;-62
2023/02/11 03:52:48;;;;;;;24.05;12.43;;;;;;;-0.92;47.66;101783.56;5030866;28;20040;-61
2023/02/11 03:55:17;;;;;;;25.98;11.68;;;;;;;-1.17;47.83;101787.66;5031423;28;20255;-61
2023/02/11 03:57:43;;;;;;;24.15;12.05;;;;;;;-1.19;48.23;101787.69;5032028;28;20044;-62
2023/02/11 04:00:10;;;;;;;23.80;12.88;;;;;;;-1.24;48.54;101786.09;5030909;28;20095;-62
2023/02/11 04:02:36;;;;;;;25.00;12.85;;;;;;;-1.32;48.43;101781.06;5031474;28;20036;-61
2023/02/11 04:05:04;;;;;;;23.58;12.15;;;;;;;-1.20;48.42;101783.38;5030529;28;20056;-61
2023/02/11 04:07:29;;;;;;;27.08;12.82;;;;;;;-1.16;48.32;101786.75;5031799;28;20109;-62
2023/02/11 04:09:55;;;;;;;25.20;13.90;;;;;;;-1.19;48.74;101790.28;5030977;28;20096;-62
2023/02/11 04:12:20;;;;;;;27.40;14.05;;;;;;;-1.31;48.75;101790.59;5032291;28;20025;-61
2023/02/11 04:14:46;;;;;;;28.17;14.98;;;;;;;-1.53;49.23;101777.25;5030630;28;20042;-61
2023/02/11 04:17:12;;;;;;;30.08;14.02;;;;;;;-1.50;49.25;101779.78;5031464;28;20029;-62
2023/02/11 04:19:37;;;;;;;37.47;15.57;;;;;;;-1.45;49.32;101784.84;5031032;28;20112;-62
2023/02/11 04:22:04;;;;;;;33.90;17.05;;;;;;;-1.44;49.22;101776.16;5030156;28;20041;-61
2023/02/11 04:24:29;;;;;;;34.83;17.48;;;;;;;-1.36;49.02;101767.31;5031551;28;20041;-62
2023/02/11 04:26:55;;;;;;;40.28;17.90;;;;;;;-1.40;48.78;101775.22;5030694;28;20043;-62
2023/02/11 04:29:20;;;;;;;40.28;19.27;;;;;;;-1.35;49.07;101773.34;5031936;28;20415;-63
2023/02/11 04:31:46;;;;;;;35.10;16.95;;;;;;;-1.45;48.67;101766.66;5030239;28;20217;-61
2023/02/11 04:34:12;;;;;;;30.75;15.45;;;;;;;-1.57;49.06;101775.59;5031868;28;20037;-61
2023/02/11 04:36:38;;;;;;;32.05;16.92;;;;;;;-1.54;48.99;101765.13;5030806;28;20038;-63
2023/02/11 04:39:03;;;;;;;39.22;21.13;;;;;;;-1.60;49.09;101767.88;5032093;28;20082;-63
2023/02/11 04:41:29;;;;;;;38.90;21.20;;;;;;;-1.78;49.02;101763.97;5031421;28;20048;-61
2023/02/11 04:43:54;;;;;;;40.17;21.65;;;;;;;-1.89;49.65;101770.28;5035369;28;20537;-63
2023/02/11 04:46:20;;;;;;;36.70;19.90;;;;;;;-1.94;50.18;101779.03;5035554;28;20035;-62
2023/02/11 04:48:45;;;;;;;44.60;21.50;;;;;;;-1.94;50.57;101772.97;5035948;28;20045;-61
2023/02/11 04:51:11;;;;;;;44.92;21.50;;;;;;;-1.91;50.25;101778.09;5034876;28;20041;-61
2023/02/11 04:53:36;;;;;;;46.30;20.60;;;;;;;-1.80;50.14;101764.88;5035969;28;20056;-62
2023/02/11 04:56:02;;;;;;;42.70;18.92;;;;;;;-1.76;50.08;101759.59;5034352;28;20307;-62
2023/02/11 04:58:27;;;;;;;55.05;27.60;;;;;;;-1.76;49.81;101762.19;5034716;28;20087;-61
2023/02/11 05:00:53;;;;;;;48.88;20.63;;;;;;;-1.76;49.92;101764.78;5034644;28;20036;-62
2023/02/11 05:03:18;;;;;;;49.25;20.42;;;;;;;-1.67;49.53;101768.91;5034007;28;20029;-63
2023/02/11 05:05:44;;;;;;;56.22;24.77;;;;;;;-1.99;50.07;101777.41;5034420;28;20059;-62
2023/02/11 05:08:11;;;;;;;56.35;25.85;;;;;;;-1.76;49.93;101762.19;5034496;28;20033;-61
2023/02/11 05:10:37;;;;;;;59.65;26.13;;;;;;;-1.63;49.19;101770.56;5034207;28;20025;-61
2023/02/11 05:13:03;;;;;;;48.38;22.77;;;;;;;-1.63;49.04;101762.75;5035546;28;20040;-63
2023/02/11 05:15:28;;;;;;;47.03;24.33;;;;;;;-1.75;50.03;101766.50;5034273;28;20029;-63
2023/02/11 05:17:54;;;;;;;47.10;23.20;;;;;;;-1.86;50.13;101767.63;5035398;28;20095;-61
2023/02/11 05:20:20;;;;;;;37.67;20.35;;;;;;;-1.88;50.24;101770.25;5034389;28;20113;-61
2023/02/11 05:22:45;;;;;;;35.05;17.17;;;;;;;-1.95;50.53;101774.72;5034836;28;20041;-63
2023/02/11 05:25:11;;;;;;;35.67;16.65;;;;;;;-1.91;50.33;101754.75;5034143;28;20335;-62
2023/02/11 05:27:36;;;;;;;32.38;15.73;;;;;;;-2.01;50.55;101768.81;5035195;28;20037;-62
2023/02/11 05:30:03;;;;;;;35.28;17.80;;;;;;;-2.09;50.62;101771.53;5034409;28;20033;-62
2023/02/11 05:32:29;;;;;;;28.40;15.48;;;;;;;-2.13;51.34;101775.09;5032486;28;20049;-63
2023/02/11 05:34:54;;;;;;;37.10;16.02;;;;;;;-2.29;51.71;101777.13;5033925;28;20255;-63
2023/02/11 05:37:19;;;;;;;33.17;15.95;;;;;;;-2.35;52.19;101779.00;5034695;28;20033;-61
2023/02/11 05:39:45;;;;;;;28.80;16.60;;;;;;;-2.27;52.24;101770.19;5034134;28;20088;-62
2023/02/11 05:42:10;;;;;;;30.95;16.27;;;;;;;-2.17;51.89;101763.06;5033835;28;20272;-62
2023/02/11 05:44:36;;;;;;;31.40;15.60;;;;;;;-2.18;52.30;101770.88;5034858;28;20097;-61
2023/02/11 05:47:01;;;;;;;37.30;17.45;;;;;;;-1.94;51.91;101775.56;5034068;28;20253;-61
2023/02/11 05:49:27;;;;;;;41.13;21.70;;;;;;;-1.86;51.65;101781.47;5034697;28;20361;-63
2023/02/11 05:51:52;;;;;;;46.92;22.63;;;;;;;-1.87;51.68;101776.28;5033449;28;20039;-63
2023/02/11 05:54:18;;;;;;;43.55;20.42;;;;;;;-1.88;51.83;101777.19;5033981;28;20056;-62
2023/02/11 05:56:43;;;;;;;42.90;19.08;;;;;;;-2.13;52.33;101782.00;5033627;28;20100;-61
2023/02/11 05:59:12;;;;;;;36.10;17.30;;;;;;;-2.37;53.38;101786.81;5035208;28;20045;-63
2023/02/11 06:01:38;;;;;;;31.75;16.65;;;;;;;-2.19;53.05;101787.34;5033299;28;20072;-63
2023/02/11 06:04:03;;;;;;;41.78;17.92;;;;;;;-2.00;52.64;101791.28;5034551;28;20044;-61
2023/02/11 06:06:29;;;;;;;32.47;16.45;;;;;;;-1.92;52.22;101786.78;5032863;28;20046;-61
2023/02/11 06:08:55;;;;;;;48.35;21.80;;;;;;;-1.90;52.01;101790.19;5034290;28;20044;-62
2023/02/11 06:11:20;;;;;;;41.63;19.52;;;;;;;-1.58;51.46;101778.25;5033205;28;20033;-62
2023/02/11 06:13:46;;;;;;;38.30;16.65;;;;;;;-1.44;51.40;101784.81;5034200;28;20273;-61
2023/02/11 06:16:11;;;;;;;29.08;14.15;;;;;;;-1.42;50.73;101777.84;5034348;28;20025;-61
2023/02/11 06:18:37;;;;;;;29.92;14.50;;;;;;;-1.22;50.99;101786.91;5033340;28;20079;-63
2023/02/11 06:21:07;;;;;;;31.35;15.48;;;;;;;-1.22;50.79;101781.69;5034481;28;20029;-63
2023/02/11 06:23:32;;;;;;;32.20;16.70;;;;;;;-1.06;50.74;101783.88;5033107;28;20087;-61
2023/02/11 06:26:15;;;;;;;31.27;17.45;;;;;;;-0.90;50.22;101786.13;5034627;28;20030;-62
2023/02/11 06:28:40;;;;;;;40.42;21.00;;;;;;;-0.81;49.90;101791.09;5033961;28;20292;-63
2023/02/11 06:31:06;;;;;;;49.78;25.77;;;;;;;-0.66;49.72;101788.94;5033618;28;20092;-62
2023/02/11 06:33:33;;;;;;;55.75;27.00;;;;;;;-0.79;50.42;101794.50;5033979;28;20130;-62
2023/02/11 06:35:58;;;;;;;57.70;28.52;;;;;;;-0.54;50.31;101798.16;5034878;28;20079;-62
2023/02/11 06:38:23;;;;;;;50.85;23.92;;;;;;;-0.36;49.99;101789.84;5035142;28;20108;-63
2023/02/11 06:40:49;;;;;;;44.15;21.88;;;;;;;-0.28;50.01;101787.03;5034768;28;20041;-63
2023/02/11 06:43:15;;;;;;;45.17;19.92;;;;;;;-0.33;49.55;101770.69;5034741;28;20308;-61
2023/02/11 06:45:41;;;;;;;41.30;19.90;;;;;;;-0.26;50.12;101784.38;5034013;28;20049;-61
2023/02/11 06:48:06;;;;;;;40.50;20.27;;;;;;;-0.14;50.36;101784.03;5033311;28;20355;-64
2023/02/11 06:50:32;;;;;;;32.78;17.40;;;;;;;-0.24;50.53;101770.44;5034431;28;20106;-63
2023/02/11 06:53:00;;;;;;;27.23;16.48;;;;;;;-0.19;50.56;101767.69;5032416;28;20045;-61
2023/02/11 06:55:26;;;;;;;35.65;18.50;;;;;;;-0.16;51.03;101765.84;5034649;28;20212;-62
2023/02/11 06:57:51;;;;;;;37.92;19.00;;;;;;;-0.04;51.35;101770.69;5033272;28;20049;-62
2023/02/11 07:00:17;;;;;;;27.25;15.38;;;;;;;0.09;50.73;101765.16;5032720;28;20184;-63
2023/02/11 07:02:43;;;;;;;27.92;15.70;;;;;;;0.10;51.07;101765.09;5035044;28;20045;-62
2023/02/11 07:05:09;;;;;;;30.20;15.57;;;;;;;0.26;50.54;101755.06;5031827;28;20280;-61
2023/02/11 07:07:35;;;;;;;33.25;15.15;;;;;;;0.32;49.90;101765.31;5034236;28;20350;-62
2023/02/11 07:10:02;;;;;;;31.83;15.23;;;;;;;0.53;49.98;101761.16;5033538;28;20059;-62
2023/02/11 07:12:28;;;;;;;24.67;16.20;;;;;;;0.53;49.99;101753.34;5032894;28;20033;-63
2023/02/11 07:14:55;;;;;;;37.90;17.20;;;;;;;0.51;50.14;101762.97;5034244;28;20049;-64
2023/02/11 07:17:21;;;;;;;34.55;15.63;;;;;;;0.67;49.49;101763.34;5032855;28;20041;-61
2023/02/11 07:19:46;;;;;;;26.50;14.18;;;;;;;0.77;49.64;101768.19;5033131;28;20212;-62
2023/02/11 07:22:12;;;;;;;27.58;14.85;;;;;;;0.88;49.77;101760.88;5032696;28;20049;-63
2023/02/11 07:24:37;;;;;;;29.65;14.15;;;;;;;0.96;49.82;101764.06;5033079;28;20034;-62
2023/02/11 07:27:03;;;;;;;24.63;13.10;;;;;;;1.15;49.41;101763.47;5033310;28;20113;-62
2023/02/11 07:29:28;;;;;;;20.85;11.27;;;;;;;1.26;48.73;101756.13;5034556;28;20033;-62
2023/02/11 07:31:54;;;;;;;17.58;11.23;;;;;;;1.54;48.31;101758.59;5033424;28;20037;-63
2023/02/11 07:34:19;;;;;;;21.08;10.73;;;;;;;1.56;47.87;101756.78;5031093;28;20418;-62
2023/02/11 07:36:45;;;;;;;22.02;10.57;;;;;;;1.58;48.67;101754.97;5032551;28;20049;-62
2023/02/11 07:39:10;;;;;;;23.73;12.15;;;;;;;1.47;48.64;101762.34;5033508;28;20045;-62
2023/02/11 07:41:37;;;;;;;19.40;11.18;;;;;;;1.66;49.38;101755.56;5034116;28;20026;-62
2023/02/11 07:44:02;;;;;;;17.15;9.93;;;;;;;1.74;49.15;101755.25;5031937;28;20057;-62
2023/02/11 07:46:28;;;;;;;20.42;11.05;;;;;;;1.80;48.42;101748.06;5033307;28;20102;-61
2023/02/11 07:48:54;;;;;;;19.63;12.15;;;;;;;1.91;48.68;101743.28;5032100;28;20080;-63
2023/02/11 07:51:24;;;;;;;22.60;11.93;;;;;;;2.16;48.60;101748.44;5033237;28;20037;-64
2023/02/11 07:53:50;;;;;;;22.40;12.07;;;;;;;2.47;47.69;101742.00;5032592;28;20073;-62
2023/02/11 07:56:17;;;;;;;21.38;11.18;;;;;;;2.37;47.10;101728.44;5034216;28;20033;-61
2023/02/11 07:58:43;;;;;;;24.27;11.55;;;;;;;2.41;47.03;101734.41;5032505;28;20403;-62
2023/02/11 08:01:18;;;;;;;23.92;13.32;;;;;;;2.43;47.51;101740.44;5033980;28;20025;-64
2023/02/11 08:03:44;;;;;;;28.23;12.88;;;;;;;2.30;47.25;101727.00;5032855;28;20046;-63
2023/02/11 08:06:16;;;;;;;23.08;12.18;;;;;;;2.45;47.40;101735.97;5032532;28;20060;-62
2023/02/11 08:08:42;;;;;;;20.58;11.82;;;;;;;2.54;46.86;101739.06;5031092;28;20389;-62
2023/02/11 08:11:11;;;;;;;30.92;13.77;;;;;;;2.80;47.68;101735.38;5031896;28;20025;-62
2023/02/11 08:13:38;;;;;;;25.77;13.77;;;;;;;2.96;47.09;101730.38;5032053;28;20318;-62
2023/02/11 08:16:05;;;;;;;24.85;11.43;;;;;;;3.01;45.81;101728.41;5032454;28;20084;-61
2023/02/11 08:18:31;;;;;;;20.20;11.32;;;;;;;2.85;45.21;101704.66;5034195;28;20041;-62
2023/02/11 08:21:02;;;;;;;20.33;11.73;;;;;;;2.92;45.91;101720.09;5037854;28;20079;-64
2023/02/11 08:23:27;;;;;;;22.98;12.60;;;;;;;2.91;45.94;101716.63;5036667;28;20132;-64
2023/02/11 08:25:53;;;;;;;22.85;12.27;;;;;;;2.85;46.36;101720.34;5035204;28;20033;-62
2023/02/11 08:28:18;;;;;;;22.90;12.25;;;;;;;2.87;46.77;101721.13;5035561;28;21551;-62
2023/02/11 08:30:43;;;;;;;19.33;12.10;;;;;;;3.01;46.90;101714.47;5036458;28;20300;-62
2023/02/11 08:33:09;;;;;;;23.25;11.82;;;;;;;2.93;46.45;101716.56;5036237;28;20034;-63
2023/02/11 08:35:35;;;;;;;22.13;11.82;;;;;;;3.00;46.33;101716.22;5035062;28;20044;-61
2023/02/11 08:38:01;;;;;;;22.60;11.75;;;;;;;3.11;46.24;101705.28;5036242;28;20056;-62
2023/02/11 08:40:26;;;;;;;22.35;12.75;;;;;;;3.21;46.86;101704.00;5035962;28;20215;-61
2023/02/11 08:42:52;;;;;;;23.60;13.02;;;;;;;3.30;46.45;101702.75;5032258;28;20072;-62
2023/02/11 08:45:17;;;;;;;21.75;12.27;;;;;;;3.35;45.89;101704.25;5036755;28;20028;-62
2023/02/11 08:47:43;;;;;;;23.70;11.80;;;;;;;3.25;45.70;101694.25;5035366;28;20049;-64
2023/02/11 08:50:08;;;;;;;18.17;11.48;;;;;;;3.36;45.63;101699.88;5035125;28;20339;-61
2023/02/11 08:52:35;;;;;;;21.60;11.38;;;;;;;3.40;45.40;101698.81;5035841;28;20059;-61
2023/02/11 08:55:00;;;;;;;21.02;12.00;;;;;;;3.48;45.60;101696.69;5037531;28;20032;-61
2023/02/11 08:57:26;;;;;;;22.67;12.07;;;;;;;3.55;45.21;101695.50;5036900;28;20033;-62
2023/02/11 08:59:51;;;;;;;20.83;11.60;;;;;;;3.54;45.41;101693.81;5034225;28;20052;-61
2023/02/11 09:02:20;;;;;;;18.83;11.50;;;;;;;3.61;45.20;101697.84;5034836;28;20037;-63
2023/02/11 09:04:45;;;;;;;22.63;12.75;;;;;;;3.60;45.36;101688.28;5033995;28;20088;-63
2023/02/11 09:07:12;;;;;;;24.33;12.80;;;;;;;3.69;44.92;101680.00;5026775;28;20212;-62
2023/02/11 09:09:37;;;;;;;20.45;11.57;;;;;;;3.83;44.83;101692.47;5036003;28;20044;-62
2023/02/11 09:12:03;;;;;;;25.90;11.93;;;;;;;3.97;44.04;101690.03;5035733;28;20281;-61
2023/02/11 09:14:28;;;;;;;24.42;12.50;;;;;;;3.83;44.21;101681.97;5035686;28;20053;-63
2023/02/11 09:16:54;;;;;;;26.08;12.90;;;;;;;4.09;43.76;101678.97;5035303;28;20083;-63
2023/02/11 09:19:19;;;;;;;26.77;13.57;;;;;;;4.26;43.68;101679.97;5035181;28;20033;-61
2023/02/11 09:21:45;;;;;;;24.52;13.43;;;;;;;4.08;43.19;101668.56;5034350;28;20041;-61
2023/02/11 09:24:11;;;;;;;28.52;13.82;;;;;;;4.09;43.16;101668.47;5035130;28;20354;-61
2023/02/11 09:26:37;;;;;;;31.02;14.40;;;;;;;4.12;43.95;101668.34;5036542;28;20037;-62
2023/02/11 09:29:03;;;;;;;25.02;12.98;;;;;;;4.28;43.35;101665.00;5034813;28;20056;-61
2023/02/11 09:31:31;;;;;;;21.92;12.55;;;;;;;4.27;42.66;101665.94;5034748;28;20029;-61
2023/02/11 09:34:00;;;;;;;26.40;13.40;;;;;;;4.28;42.31;101657.13;5035209;28;20140;-62
2023/02/11 09:36:31;;;;;;;23.15;12.55;;;;;;;4.35;41.87;101650.66;5035835;28;20417;-61
2023/02/11 09:38:58;;;;;;;22.13;11.93;;;;;;;4.52;41.86;101660.31;5034860;28;20129;-61
2023/02/11 09:41:39;;;;;;;21.17;11.23;;;;;;;4.46;41.93;101657.06;5034608;28;20046;-63
2023/02/11 09:44:09;;;;;;;22.90;12.85;;;;;;;4.62;41.95;101648.44;5032573;28;20123;-61
2023/02/11 09:46:40;;;;;;;22.15;12.07;;;;;;;4.49;41.04;101645.56;5034447;28;20029;-62
2023/02/11 09:49:06;;;;;;;20.80;11.98;;;;;;;4.57;40.23;101637.31;5030274;28;20109;-61
2023/02/11 09:51:41;;;;;;;20.35;11.88;;;;;;;4.68;40.54;101630.59;5034815;28;20032;-61
2023/02/11 09:54:14;;;;;;;18.23;11.02;;;;;;;4.78;40.81;101625.72;5033994;28;20047;-62
2023/02/11 09:56:40;;;;;;;22.52;11.70;;;;;;;4.81;39.33;101620.31;5034321;28;20341;-63
2023/02/11 09:59:12;;;;;;;19.63;10.45;;;;;;;4.78;39.91;101610.84;5033792;28;20037;-63
2023/02/11 10:01:48;;;;;;;16.75;8.57;;;;;;;4.61;38.11;101586.38;5035566;28;20063;-62
2023/02/11 10:04:36;;;;;;;19.67;10.70;;;;;;;4.81;38.47;101592.31;5031944;28;20220;-62
2023/02/11 10:07:20;;;;;;;29.98;13.90;;;;;;;4.76;39.86;101578.56;5035370;28;20079;-62
2023/02/11 10:10:07;;;;;;;22.35;12.00;;;;;;;4.93;39.93;101567.19;5033250;28;20048;-64
2023/02/11 10:13:03;;;;;;;17.60;10.88;;;;;;;5.04;38.93;101567.47;5033481;28;20303;-62
2023/02/11 10:15:55;;;;;;;22.05;10.05;;;;;;;5.03;38.00;101560.50;5033278;28;20362;-61
2023/02/11 10:18:58;;;;;;;22.27;10.68;;;;;;;4.95;39.05;101552.19;5026445;28;20034;-62
2023/02/11 10:21:51;;;;;;;19.67;9.82;;;;;;;5.09;38.87;101552.31;5033548;28;20091;-62
2023/02/11 10:24:17;;;;;;;20.10;10.40;;;;;;;4.97;38.93;101544.25;5032494;28;20375;-63
2023/02/11 10:26:44;;;;;;;20.92;12.23;;;;;;;5.14;39.18;101541.56;5035008;28;20445;-63
2023/02/11 10:29:34;;;;;;;16.17;9.82;;;;;;;5.12;37.78;101532.91;5035816;28;20041;-61
2023/02/11 10:32:04;;;;;;;18.55;9.48;;;;;;;5.13;37.65;101526.72;5034109;28;20469;-61
2023/02/11 10:34:30;;;;;;;15.40;8.55;;;;;;;4.92;36.46;101520.88;5030792;28;20327;-61
2023/02/11 10:36:55;;;;;;;21.95;9.70;;;;;;;4.85;37.62;101501.13;5034144;28;20041;-61
2023/02/11 10:39:25;;;;;;;13.55;8.15;;;;;;;4.86;36.54;101504.59;5034014;28;20067;-63
2023/02/11 10:41:57;;;;;;;15.05;8.80;;;;;;;4.89;37.21;101501.81;5035263;28;20370;-62
2023/02/11 10:44:29;;;;;;;16.08;8.68;;;;;;;5.04;36.77;101498.34;5033498;28;20092;-62
2023/02/11 10:46:58;;;;;;;14.25;7.88;;;;;;;5.05;36.35;101492.16;5033904;28;20516;-61
2023/02/11 10:49:41;;;;;;;16.17;8.88;;;;;;;5.00;36.07;101488.94;5034314;28;20061;-61
2023/02/11 10:52:21;;;;;;;16.55;7.93;;;;;;;5.03;35.69;101479.13;5030310;28;20068;-62
2023/02/11 10:55:23;;;;;;;12.85;8.20;;;;;;;5.19;35.29;101479.13;5032488;28;20041;-64
2023/02/11 10:57:51;;;;;;;12.65;8.25;;;;;;;5.14;34.24;101473.28;5029671;28;20048;-62
2023/02/11 11:00:16;;;;;;;15.73;8.77;;;;;;;5.09;34.71;101465.66;5032994;28;20247;-62
2023/02/11 11:02:43;;;;;;;17.25;9.23;;;;;;;5.24;35.33;101463.97;5032698;28;20236;-61
2023/02/11 11:05:18;;;;;;;16.60;8.57;;;;;;;5.18;35.57;101464.28;5033643;28;20313;-61
2023/02/11 11:07:56;;;;;;;16.17;8.23;;;;;;;5.26;35.78;101461.28;5032521;28;20045;-61
2023/02/11 11:10:27;;;;;;;14.60;8.15;;;;;;;5.20;35.22;101448.44;5033604;28;20354;-61
2023/02/11 11:12:53;;;;;;;14.45;8.40;;;;;;;5.17;34.77;101441.59;5033205;28;20034;-61
2023/02/11 11:15:28;;;;;;;14.80;7.55;;;;;;;5.24;35.22;101450.00;5031964;28;20224;-63
2023/02/11 11:18:20;;;;;;;15.57;8.23;;;;;;;5.37;34.81;101438.72;5030342;28;20041;-62
2023/02/11 11:21:00;;;;;;;16.52;8.48;;;;;;;5.46;34.77;101424.22;5031045;28;20041;-61
2023/02/11 11:23:29;;;;;;;15.52;8.35;;;;;;;5.55;35.49;101420.19;5032581;28;20048;-62
2023/02/11 11:26:09;;;;;;;13.65;7.80;;;;;;;5.46;33.91;101418.94;5034025;28;20045;-63
2023/02/11 11:28:56;;;;;;;16.52;11.07;;;;;;;5.57;34.02;101416.56;5030034;28;20041;-62
2023/02/11 11:31:27;;;;;;;18.50;8.68;;;;;;;5.53;34.39;101407.16;5030312;28;20034;-61